sensor_id;sensor_type;location;lat;lon;timestamp;P1;durP1;ratioP1;P2;durP2;ratioP2
42714;SDS011;28351;51.480;5.706;2023-02-24T00:01:23;12.52;;;3.40;;
42714;SDS011;28351;51.480;5.706;2023-02-24T00:03:55;18.40;;;3.80;;
42714;SDS011;28351;51.480;5.706;2023-02-24T00:06:22;16.85;;;3.85;;
42714;SDS011;28351;51.480;5.706;2023-02-24T00:08:49;12.90;;;3.10;;
42714;SDS011;28351;51.480;5.706;2023-02-24T00:11:15;16.45;;;3.78;;
42714;SDS011;28351;51.480;5.706;2023-02-24T00:13:43;18.33;;;3.33;;
42714;SDS011;28351;51.480;5.706;2023-02-24T00:16:12;16.45;;;3.30;;
42714;SDS011;28351;51.480;5.706;2023-02-24T00:18:42;12.13;;;3.10;;
42714;SDS011;28351;51.480;5.706;2023-02-24T00:21:10;10.07;;;3.05;;
42714;SDS011;28351;51.480;5.706;2023-02-24T00:23:43;17.38;;;3.75;;
42714;SDS011;28351;51.480;5.706;2023-02-24T00:26:11;12.52;;;3.25;;
42714;SDS011;28351;51.480;5.706;2023-02-24T00:31:06;14.55;;;3.92;;
42714;SDS011;28351;51.480;5.706;2023-02-24T00:33:34;18.60;;;5.18;;
42714;SDS011;28351;51.480;5.706;2023-02-24T00:36:04;11.57;;;3.47;;
42714;SDS011;28351;51.480;5.706;2023-02-24T00:38:30;12.55;;;2.95;;
42714;SDS011;28351;51.480;5.706;2023-02-24T00:41:00;18.17;;;3.28;;
42714;SDS011;28351;51.480;5.706;2023-02-24T00:43:38;10.88;;;3.38;;
42714;SDS011;28351;51.480;5.706;2023-02-24T00:49:30;10.27;;;3.08;;
42714;SDS011;28351;51.480;5.706;2023-02-24T00:52:17;12.65;;;3.53;;
42714;SDS011;28351;51.480;5.706;2023-02-24T00:54:56;16.92;;;3.70;;
42714;SDS011;28351;51.480;5.706;2023-02-24T01:06:50;18.75;;;3.83;;
42714;SDS011;28351;51.480;5.706;2023-02-24T01:09:39;15.45;;;3.58;;
42714;SDS011;28351;51.480;5.706;2023-02-24T01:35:24;15.02;;;3.45;;
42714;SDS011;28351;51.480;5.706;2023-02-24T01:37:49;11.85;;;2.95;;
42714;SDS011;28351;51.480;5.706;2023-02-24T01:40:15;11.10;;;3.80;;
42714;SDS011;28351;51.480;5.706;2023-02-24T01:42:44;15.00;;;4.22;;
42714;SDS011;28351;51.480;5.706;2023-02-24T01:45:13;16.45;;;3.35;;
42714;SDS011;28351;51.480;5.706;2023-02-24T01:47:45;19.90;;;3.30;;
42714;SDS011;28351;51.480;5.706;2023-02-24T01:50:11;12.50;;;3.50;;
42714;SDS011;28351;51.480;5.706;2023-02-24T01:52:39;12.57;;;3.13;;
42714;SDS011;28351;51.480;5.706;2023-02-24T01:55:11;11.25;;;3.20;;
42714;SDS011;28351;51.480;5.706;2023-02-24T01:57:44;9.68;;;3.85;;
42714;SDS011;28351;51.480;5.706;2023-02-24T02:00:11;16.30;;;3.92;;
42714;SDS011;28351;51.480;5.706;2023-02-24T02:03:03;15.07;;;3.33;;
42714;SDS011;28351;51.480;5.706;2023-02-24T02:05:39;21.17;;;3.00;;
42714;SDS011;28351;51.480;5.706;2023-02-24T02:08:06;13.57;;;3.03;;
42714;SDS011;28351;51.480;5.706;2023-02-24T02:10:33;14.27;;;3.22;;
42714;SDS011;28351;51.480;5.706;2023-02-24T02:13:02;14.15;;;3.55;;
42714;SDS011;28351;51.480;5.706;2023-02-24T02:15:28;11.30;;;2.90;;
42714;SDS011;28351;51.480;5.706;2023-02-24T02:21:21;14.75;;;2.80;;
42714;SDS011;28351;51.480;5.706;2023-02-24T02:35:34;8.00;;;2.60;;
42714;SDS011;28351;51.480;5.706;2023-02-24T02:38:10;13.30;;;2.78;;
42714;SDS011;28351;51.480;5.706;2023-02-24T02:40:47;12.40;;;2.63;;
42714;SDS011;28351;51.480;5.706;2023-02-24T02:43:44;11.68;;;2.63;;
42714;SDS011;28351;51.480;5.706;2023-02-24T02:46:43;13.35;;;2.13;;
42714;SDS011;28351;51.480;5.706;2023-02-24T02:49:22;12.13;;;2.65;;
42714;SDS011;28351;51.480;5.706;2023-02-24T02:51:57;11.75;;;3.22;;
42714;SDS011;28351;51.480;5.706;2023-02-24T02:54:36;8.48;;;2.15;;
42714;SDS011;28351;51.480;5.706;2023-02-24T02:57:13;13.65;;;2.28;;
42714;SDS011;28351;51.480;5.706;2023-02-24T02:59:48;10.05;;;3.30;;
42714;SDS011;28351;51.480;5.706;2023-02-24T03:02:22;7.28;;;2.00;;
42714;SDS011;28351;51.480;5.706;2023-02-24T03:04:54;13.77;;;2.28;;
42714;SDS011;28351;51.480;5.706;2023-02-24T03:07:23;12.45;;;2.65;;
42714;SDS011;28351;51.480;5.706;2023-02-24T03:09:57;11.90;;;2.30;;
42714;SDS011;28351;51.480;5.706;2023-02-24T03:12:25;18.17;;;2.75;;
42714;SDS011;28351;51.480;5.706;2023-02-24T03:14:59;12.18;;;2.38;;
42714;SDS011;28351;51.480;5.706;2023-02-24T03:17:29;7.55;;;2.17;;
42714;SDS011;28351;51.480;5.706;2023-02-24T03:20:07;11.52;;;2.28;;
42714;SDS011;28351;51.480;5.706;2023-02-24T03:22:51;7.25;;;2.70;;
42714;SDS011;28351;51.480;5.706;2023-02-24T03:25:24;8.10;;;2.40;;
42714;SDS011;28351;51.480;5.706;2023-02-24T03:27:54;5.80;;;2.55;;
42714;SDS011;28351;51.480;5.706;2023-02-24T03:32:55;12.68;;;2.50;;
42714;SDS011;28351;51.480;5.706;2023-02-24T03:35:27;14.70;;;2.03;;
42714;SDS011;28351;51.480;5.706;2023-02-24T03:37:55;9.15;;;2.78;;
42714;SDS011;28351;51.480;5.706;2023-02-24T03:40:28;7.35;;;2.55;;
42714;SDS011;28351;51.480;5.706;2023-02-24T03:43:01;12.80;;;2.15;;
42714;SDS011;28351;51.480;5.706;2023-02-24T03:45:36;8.13;;;1.75;;
42714;SDS011;28351;51.480;5.706;2023-02-24T03:48:07;10.18;;;1.83;;
42714;SDS011;28351;51.480;5.706;2023-02-24T03:50:36;6.38;;;2.17;;
42714;SDS011;28351;51.480;5.706;2023-02-24T03:53:11;12.30;;;2.00;;
42714;SDS011;28351;51.480;5.706;2023-02-24T03:58:51;7.55;;;2.05;;
42714;SDS011;28351;51.480;5.706;2023-02-24T04:01:50;6.15;;;2.45;;
42714;SDS011;28351;51.480;5.706;2023-02-24T04:04:41;5.30;;;1.80;;
42714;SDS011;28351;51.480;5.706;2023-02-24T04:07:16;6.72;;;2.03;;
42714;SDS011;28351;51.480;5.706;2023-02-24T04:12:44;12.07;;;1.77;;
42714;SDS011;28351;51.480;5.706;2023-02-24T04:15:31;7.85;;;2.15;;
42714;SDS011;28351;51.480;5.706;2023-02-24T04:18:03;6.95;;;1.70;;
42714;SDS011;28351;51.480;5.706;2023-02-24T04:20:33;6.60;;;2.38;;
42714;SDS011;28351;51.480;5.706;2023-02-24T04:23:09;8.80;;;1.83;;
42714;SDS011;28351;51.480;5.706;2023-02-24T04:25:39;3.80;;;1.83;;
42714;SDS011;28351;51.480;5.706;2023-02-24T04:28:09;8.77;;;1.60;;
42714;SDS011;28351;51.480;5.706;2023-02-24T04:30:38;8.85;;;1.65;;
42714;SDS011;28351;51.480;5.706;2023-02-24T04:33:07;6.07;;;1.48;;
42714;SDS011;28351;51.480;5.706;2023-02-24T04:35:34;6.47;;;1.65;;
42714;SDS011;28351;51.480;5.706;2023-02-24T04:38:01;6.37;;;2.03;;
42714;SDS011;28351;51.480;5.706;2023-02-24T04:40:29;7.03;;;1.90;;
42714;SDS011;28351;51.480;5.706;2023-02-24T04:42:57;12.35;;;2.00;;
42714;SDS011;28351;51.480;5.706;2023-02-24T04:45:26;8.35;;;1.67;;
42714;SDS011;28351;51.480;5.706;2023-02-24T04:47:55;7.75;;;1.70;;
42714;SDS011;28351;51.480;5.706;2023-02-24T04:50:25;8.30;;;2.40;;
42714;SDS011;28351;51.480;5.706;2023-02-24T04:55:25;9.38;;;2.42;;
42714;SDS011;28351;51.480;5.706;2023-02-24T04:57:57;8.38;;;1.98;;
42714;SDS011;28351;51.480;5.706;2023-02-24T05:00:27;5.55;;;1.70;;
42714;SDS011;28351;51.480;5.706;2023-02-24T05:02:58;6.97;;;2.00;;
42714;SDS011;28351;51.480;5.706;2023-02-24T05:05:25;6.47;;;1.48;;
42714;SDS011;28351;51.480;5.706;2023-02-24T05:07:55;10.27;;;2.53;;
42714;SDS011;28351;51.480;5.706;2023-02-24T05:10:29;4.90;;;1.50;;
42714;SDS011;28351;51.480;5.706;2023-02-24T05:13:02;9.55;;;1.52;;
42714;SDS011;28351;51.480;5.706;2023-02-24T05:15:30;13.70;;;1.70;;
42714;SDS011;28351;51.480;5.706;2023-02-24T05:17:59;8.23;;;1.45;;
42714;SDS011;28351;51.480;5.706;2023-02-24T05:20:36;10.52;;;1.88;;
42714;SDS011;28351;51.480;5.706;2023-02-24T05:23:25;9.43;;;2.22;;
42714;SDS011;28351;51.480;5.706;2023-02-24T05:25:51;11.45;;;1.40;;
42714;SDS011;28351;51.480;5.706;2023-02-24T05:28:19;5.47;;;1.50;;
42714;SDS011;28351;51.480;5.706;2023-02-24T05:30:47;5.78;;;1.60;;
42714;SDS011;28351;51.480;5.706;2023-02-24T05:33:13;8.77;;;1.60;;
42714;SDS011;28351;51.480;5.706;2023-02-24T05:35:39;7.28;;;1.60;;
42714;SDS011;28351;51.480;5.706;2023-02-24T05:38:04;6.53;;;1.90;;
42714;SDS011;28351;51.480;5.706;2023-02-24T05:40:32;7.68;;;1.58;;
42714;SDS011;28351;51.480;5.706;2023-02-24T05:42:58;13.52;;;1.80;;
42714;SDS011;28351;51.480;5.706;2023-02-24T05:45:28;8.07;;;1.83;;
42714;SDS011;28351;51.480;5.706;2023-02-24T05:47:54;10.38;;;1.70;;
42714;SDS011;28351;51.480;5.706;2023-02-24T05:50:23;11.15;;;1.70;;
42714;SDS011;28351;51.480;5.706;2023-02-24T05:52:51;7.47;;;1.73;;
42714;SDS011;28351;51.480;5.706;2023-02-24T05:55:17;5.35;;;1.60;;
42714;SDS011;28351;51.480;5.706;2023-02-24T05:57:42;5.22;;;1.67;;
42714;SDS011;28351;51.480;5.706;2023-02-24T06:00:11;7.47;;;1.52;;
42714;SDS011;28351;51.480;5.706;2023-02-24T06:02:41;12.15;;;1.63;;
42714;SDS011;28351;51.480;5.706;2023-02-24T06:05:14;9.18;;;1.80;;
42714;SDS011;28351;51.480;5.706;2023-02-24T06:07:49;16.50;;;1.80;;
42714;SDS011;28351;51.480;5.706;2023-02-24T06:10:19;11.30;;;1.85;;
42714;SDS011;28351;51.480;5.706;2023-02-24T06:12:46;7.18;;;1.33;;
42714;SDS011;28351;51.480;5.706;2023-02-24T06:15:12;9.02;;;1.55;;
42714;SDS011;28351;51.480;5.706;2023-02-24T06:17:37;7.45;;;1.65;;
42714;SDS011;28351;51.480;5.706;2023-02-24T06:20:03;10.38;;;2.20;;
42714;SDS011;28351;51.480;5.706;2023-02-24T06:22:38;12.50;;;1.90;;
42714;SDS011;28351;51.480;5.706;2023-02-24T06:25:06;6.47;;;1.83;;
42714;SDS011;28351;51.480;5.706;2023-02-24T06:27:34;6.40;;;2.03;;
42714;SDS011;28351;51.480;5.706;2023-02-24T06:30:03;10.80;;;2.10;;
42714;SDS011;28351;51.480;5.706;2023-02-24T06:32:34;7.20;;;1.67;;
42714;SDS011;28351;51.480;5.706;2023-02-24T06:35:00;7.95;;;1.88;;
42714;SDS011;28351;51.480;5.706;2023-02-24T06:37:26;11.25;;;1.60;;
42714;SDS011;28351;51.480;5.706;2023-02-24T06:39:53;7.82;;;2.00;;
42714;SDS011;28351;51.480;5.706;2023-02-24T06:42:19;8.88;;;2.40;;
42714;SDS011;28351;51.480;5.706;2023-02-24T06:44:46;9.25;;;2.20;;
42714;SDS011;28351;51.480;5.706;2023-02-24T06:47:12;4.97;;;1.70;;
42714;SDS011;28351;51.480;5.706;2023-02-24T06:49:38;4.25;;;1.67;;
42714;SDS011;28351;51.480;5.706;2023-02-24T06:52:06;8.80;;;2.33;;
42714;SDS011;28351;51.480;5.706;2023-02-24T06:54:32;7.57;;;1.65;;
42714;SDS011;28351;51.480;5.706;2023-02-24T06:57:03;2.67;;;1.63;;
42714;SDS011;28351;51.480;5.706;2023-02-24T06:59:29;5.47;;;1.70;;
42714;SDS011;28351;51.480;5.706;2023-02-24T07:01:55;10.65;;;2.08;;
42714;SDS011;28351;51.480;5.706;2023-02-24T07:04:22;6.78;;;1.77;;
42714;SDS011;28351;51.480;5.706;2023-02-24T07:06:50;10.35;;;2.47;;
42714;SDS011;28351;51.480;5.706;2023-02-24T07:09:20;11.00;;;2.22;;
42714;SDS011;28351;51.480;5.706;2023-02-24T07:11:48;6.70;;;2.05;;
42714;SDS011;28351;51.480;5.706;2023-02-24T07:14:20;6.07;;;2.50;;
42714;SDS011;28351;51.480;5.706;2023-02-24T07:16:47;5.55;;;2.00;;
42714;SDS011;28351;51.480;5.706;2023-02-24T07:19:18;7.22;;;2.20;;
42714;SDS011;28351;51.480;5.706;2023-02-24T07:21:46;5.18;;;2.17;;
42714;SDS011;28351;51.480;5.706;2023-02-24T07:24:14;6.75;;;2.42;;
42714;SDS011;28351;51.480;5.706;2023-02-24T07:27:00;5.18;;;2.13;;
42714;SDS011;28351;51.480;5.706;2023-02-24T07:29:31;7.70;;;2.40;;
42714;SDS011;28351;51.480;5.706;2023-02-24T07:31:58;9.98;;;2.38;;
42714;SDS011;28351;51.480;5.706;2023-02-24T07:34:29;8.38;;;2.30;;
42714;SDS011;28351;51.480;5.706;2023-02-24T07:36:56;6.40;;;2.00;;
42714;SDS011;28351;51.480;5.706;2023-02-24T07:39:21;7.30;;;2.10;;
42714;SDS011;28351;51.480;5.706;2023-02-24T07:41:48;12.02;;;2.95;;
42714;SDS011;28351;51.480;5.706;2023-02-24T07:44:19;11.23;;;2.40;;
42714;SDS011;28351;51.480;5.706;2023-02-24T07:46:47;11.63;;;2.92;;
42714;SDS011;28351;51.480;5.706;2023-02-24T07:49:16;8.85;;;2.45;;
42714;SDS011;28351;51.480;5.706;2023-02-24T07:51:43;7.88;;;2.42;;
42714;SDS011;28351;51.480;5.706;2023-02-24T07:54:11;7.07;;;2.05;;
42714;SDS011;28351;51.480;5.706;2023-02-24T07:56:39;5.45;;;2.22;;
42714;SDS011;28351;51.480;5.706;2023-02-24T07:59:10;11.13;;;2.50;;
42714;SDS011;28351;51.480;5.706;2023-02-24T08:01:39;10.35;;;2.15;;
42714;SDS011;28351;51.480;5.706;2023-02-24T08:04:14;8.45;;;2.03;;
42714;SDS011;28351;51.480;5.706;2023-02-24T08:06:43;4.10;;;2.00;;
42714;SDS011;28351;51.480;5.706;2023-02-24T08:09:10;9.50;;;2.15;;
42714;SDS011;28351;51.480;5.706;2023-02-24T08:11:46;5.15;;;1.70;;
42714;SDS011;28351;51.480;5.706;2023-02-24T08:14:16;9.23;;;1.98;;
42714;SDS011;28351;51.480;5.706;2023-02-24T08:16:49;7.35;;;1.90;;
42714;SDS011;28351;51.480;5.706;2023-02-24T08:19:16;4.47;;;2.20;;
42714;SDS011;28351;51.480;5.706;2023-02-24T08:21:47;2.95;;;1.42;;
42714;SDS011;28351;51.480;5.706;2023-02-24T08:26:46;6.53;;;1.70;;
42714;SDS011;28351;51.480;5.706;2023-02-24T08:29:27;7.65;;;1.75;;
42714;SDS011;28351;51.480;5.706;2023-02-24T08:32:43;5.95;;;1.85;;
42714;SDS011;28351;51.480;5.706;2023-02-24T08:35:09;8.35;;;1.30;;
42714;SDS011;28351;51.480;5.706;2023-02-24T08:37:44;6.85;;;1.90;;
42714;SDS011;28351;51.480;5.706;2023-02-24T08:40:19;8.18;;;1.90;;
42714;SDS011;28351;51.480;5.706;2023-02-24T08:43:05;13.45;;;1.90;;
42714;SDS011;28351;51.480;5.706;2023-02-24T08:45:40;4.38;;;1.40;;
42714;SDS011;28351;51.480;5.706;2023-02-24T08:48:21;5.95;;;1.52;;
42714;SDS011;28351;51.480;5.706;2023-02-24T08:51:18;7.75;;;1.70;;
42714;SDS011;28351;51.480;5.706;2023-02-24T08:53:53;4.47;;;1.30;;
42714;SDS011;28351;51.480;5.706;2023-02-24T08:56:27;9.43;;;1.50;;
42714;SDS011;28351;51.480;5.706;2023-02-24T08:58:59;7.07;;;1.60;;
42714;SDS011;28351;51.480;5.706;2023-02-24T09:01:30;4.80;;;1.80;;
42714;SDS011;28351;51.480;5.706;2023-02-24T09:04:03;4.88;;;1.40;;
42714;SDS011;28351;51.480;5.706;2023-02-24T09:06:37;9.50;;;1.67;;
42714;SDS011;28351;51.480;5.706;2023-02-24T09:09:09;10.35;;;1.77;;
42714;SDS011;28351;51.480;5.706;2023-02-24T09:14:18;6.05;;;1.33;;
42714;SDS011;28351;51.480;5.706;2023-02-24T09:16:49;3.83;;;1.23;;
42714;SDS011;28351;51.480;5.706;2023-02-24T09:22:16;3.60;;;1.50;;
42714;SDS011;28351;51.480;5.706;2023-02-24T09:24:56;5.03;;;1.45;;
42714;SDS011;28351;51.480;5.706;2023-02-24T09:30:18;4.60;;;1.45;;
42714;SDS011;28351;51.480;5.706;2023-02-24T09:33:07;7.78;;;1.27;;
42714;SDS011;28351;51.480;5.706;2023-02-24T09:35:55;6.15;;;1.55;;
42714;SDS011;28351;51.480;5.706;2023-02-24T09:38:37;6.93;;;2.08;;
42714;SDS011;28351;51.480;5.706;2023-02-24T09:44:02;7.63;;;1.85;;
42714;SDS011;28351;51.480;5.706;2023-02-24T09:46:36;10.05;;;1.73;;
42714;SDS011;28351;51.480;5.706;2023-02-24T09:49:10;6.47;;;1.60;;
42714;SDS011;28351;51.480;5.706;2023-02-24T09:51:41;6.35;;;1.60;;
42714;SDS011;28351;51.480;5.706;2023-02-24T09:54:17;7.03;;;1.90;;
42714;SDS011;28351;51.480;5.706;2023-02-24T09:57:06;6.55;;;1.83;;
42714;SDS011;28351;51.480;5.706;2023-02-24T10:06:03;7.13;;;1.73;;
42714;SDS011;28351;51.480;5.706;2023-02-24T10:08:36;9.57;;;1.90;;
42714;SDS011;28351;51.480;5.706;2023-02-24T10:11:06;5.60;;;1.77;;
42714;SDS011;28351;51.480;5.706;2023-02-24T10:13:57;8.60;;;1.67;;
42714;SDS011;28351;51.480;5.706;2023-02-24T10:16:24;7.70;;;2.00;;
42714;SDS011;28351;51.480;5.706;2023-02-24T10:19:09;5.47;;;1.80;;
42714;SDS011;28351;51.480;5.706;2023-02-24T10:22:09;9.13;;;2.10;;
42714;SDS011;28351;51.480;5.706;2023-02-24T10:24:52;7.25;;;2.17;;
42714;SDS011;28351;51.480;5.706;2023-02-24T10:27:45;7.40;;;1.90;;
42714;SDS011;28351;51.480;5.706;2023-02-24T10:30:29;7.15;;;2.15;;
42714;SDS011;28351;51.480;5.706;2023-02-24T10:36:12;4.78;;;1.90;;
42714;SDS011;28351;51.480;5.706;2023-02-24T10:38:41;9.43;;;1.85;;
42714;SDS011;28351;51.480;5.706;2023-02-24T10:41:09;12.45;;;2.13;;
42714;SDS011;28351;51.480;5.706;2023-02-24T10:43:36;10.00;;;2.78;;
42714;SDS011;28351;51.480;5.706;2023-02-24T10:46:24;9.25;;;1.88;;
42714;SDS011;28351;51.480;5.706;2023-02-24T10:48:59;8.13;;;2.35;;
42714;SDS011;28351;51.480;5.706;2023-02-24T10:51:46;4.70;;;2.13;;
42714;SDS011;28351;51.480;5.706;2023-02-24T10:54:21;13.27;;;2.22;;
42714;SDS011;28351;51.480;5.706;2023-02-24T11:03:31;8.20;;;2.47;;
42714;SDS011;28351;51.480;5.706;2023-02-24T11:06:22;7.32;;;2.10;;
42714;SDS011;28351;51.480;5.706;2023-02-24T11:14:52;6.32;;;1.75;;
42714;SDS011;28351;51.480;5.706;2023-02-24T11:17:47;5.60;;;1.65;;
42714;SDS011;28351;51.480;5.706;2023-02-24T11:20:33;9.18;;;2.70;;
42714;SDS011;28351;51.480;5.706;2023-02-24T11:23:03;4.93;;;1.67;;
42714;SDS011;28351;51.480;5.706;2023-02-24T11:25:34;6.72;;;2.08;;
42714;SDS011;28351;51.480;5.706;2023-02-24T11:28:00;6.00;;;2.38;;
42714;SDS011;28351;51.480;5.706;2023-02-24T11:33:34;5.35;;;2.28;;
42714;SDS011;28351;51.480;5.706;2023-02-24T11:36:12;7.15;;;2.55;;
42714;SDS011;28351;51.480;5.706;2023-02-24T11:38:55;8.43;;;2.15;;
42714;SDS011;28351;51.480;5.706;2023-02-24T11:41:39;5.53;;;2.38;;
42714;SDS011;28351;51.480;5.706;2023-02-24T11:44:13;6.65;;;2.42;;
42714;SDS011;28351;51.480;5.706;2023-02-24T11:46:57;9.52;;;2.58;;
42714;SDS011;28351;51.480;5.706;2023-02-24T11:49:44;11.13;;;2.72;;
42714;SDS011;28351;51.480;5.706;2023-02-24T11:52:32;8.57;;;2.47;;
42714;SDS011;28351;51.480;5.706;2023-02-24T11:55:02;10.52;;;3.03;;
42714;SDS011;28351;51.480;5.706;2023-02-24T11:57:39;6.25;;;3.10;;
42714;SDS011;28351;51.480;5.706;2023-02-24T12:02:46;6.70;;;3.30;;
42714;SDS011;28351;51.480;5.706;2023-02-24T12:05:15;5.55;;;3.38;;
42714;SDS011;28351;51.480;5.706;2023-02-24T12:07:47;8.35;;;3.00;;
42714;SDS011;28351;51.480;5.706;2023-02-24T12:10:18;10.82;;;3.60;;
42714;SDS011;28351;51.480;5.706;2023-02-24T12:16:05;7.05;;;3.45;;
42714;SDS011;28351;51.480;5.706;2023-02-24T12:18:40;14.35;;;3.78;;
42714;SDS011;28351;51.480;5.706;2023-02-24T12:23:36;10.68;;;3.55;;
42714;SDS011;28351;51.480;5.706;2023-02-24T12:34:47;9.68;;;4.50;;
42714;SDS011;28351;51.480;5.706;2023-02-24T12:37:33;15.82;;;4.30;;
42714;SDS011;28351;51.480;5.706;2023-02-24T12:46:00;11.82;;;3.67;;
42714;SDS011;28351;51.480;5.706;2023-02-24T12:54:43;9.25;;;3.95;;
42714;SDS011;28351;51.480;5.706;2023-02-24T12:59:55;12.13;;;4.25;;
42714;SDS011;28351;51.480;5.706;2023-02-24T13:16:47;12.02;;;4.22;;
42714;SDS011;28351;51.480;5.706;2023-02-24T13:19:20;7.68;;;4.10;;
42714;SDS011;28351;51.480;5.706;2023-02-24T13:24:38;9.85;;;4.80;;
42714;SDS011;28351;51.480;5.706;2023-02-24T13:27:23;10.25;;;4.28;;
42714;SDS011;28351;51.480;5.706;2023-02-24T13:32:45;10.27;;;4.68;;
42714;SDS011;28351;51.480;5.706;2023-02-24T13:37:47;13.85;;;5.95;;
42714;SDS011;28351;51.480;5.706;2023-02-24T13:45:27;11.23;;;5.65;;
42714;SDS011;28351;51.480;5.706;2023-02-24T14:01:47;9.57;;;6.13;;
42714;SDS011;28351;51.480;5.706;2023-02-24T14:04:31;12.43;;;4.93;;
42714;SDS011;28351;51.480;5.706;2023-02-24T14:07:03;11.57;;;5.30;;
42714;SDS011;28351;51.480;5.706;2023-02-24T14:09:44;10.63;;;5.88;;
42714;SDS011;28351;51.480;5.706;2023-02-24T14:12:17;14.82;;;7.25;;
42714;SDS011;28351;51.480;5.706;2023-02-24T14:14:46;11.00;;;5.72;;
42714;SDS011;28351;51.480;5.706;2023-02-24T14:19:44;13.10;;;6.68;;
42714;SDS011;28351;51.480;5.706;2023-02-24T14:22:16;16.30;;;6.38;;
42714;SDS011;28351;51.480;5.706;2023-02-24T14:24:59;14.20;;;6.30;;
42714;SDS011;28351;51.480;5.706;2023-02-24T14:27:26;10.65;;;5.80;;
42714;SDS011;28351;51.480;5.706;2023-02-24T14:29:54;11.63;;;6.07;;
42714;SDS011;28351;51.480;5.706;2023-02-24T14:35:33;13.43;;;7.28;;
42714;SDS011;28351;51.480;5.706;2023-02-24T14:38:27;15.23;;;8.32;;
42714;SDS011;28351;51.480;5.706;2023-02-24T14:40:58;12.15;;;7.05;;
42714;SDS011;28351;51.480;5.706;2023-02-24T14:43:31;16.80;;;8.15;;
42714;SDS011;28351;51.480;5.706;2023-02-24T14:48:37;11.82;;;6.80;;
42714;SDS011;28351;51.480;5.706;2023-02-24T14:51:14;11.18;;;6.70;;
42714;SDS011;28351;51.480;5.706;2023-02-24T14:53:56;13.90;;;6.70;;
42714;SDS011;28351;51.480;5.706;2023-02-24T14:56:27;16.02;;;7.80;;
42714;SDS011;28351;51.480;5.706;2023-02-24T14:59:01;20.30;;;10.00;;
42714;SDS011;28351;51.480;5.706;2023-02-24T15:01:35;15.10;;;7.25;;
42714;SDS011;28351;51.480;5.706;2023-02-24T15:06:57;14.63;;;7.22;;
42714;SDS011;28351;51.480;5.706;2023-02-24T15:09:27;15.13;;;7.57;;
42714;SDS011;28351;51.480;5.706;2023-02-24T15:11:57;11.38;;;6.30;;
42714;SDS011;28351;51.480;5.706;2023-02-24T15:14:31;11.20;;;5.43;;
42714;SDS011;28351;51.480;5.706;2023-02-24T15:16:59;11.25;;;4.93;;
42714;SDS011;28351;51.480;5.706;2023-02-24T15:21:57;10.82;;;4.97;;
42714;SDS011;28351;51.480;5.706;2023-02-24T15:26:52;9.97;;;2.80;;
42714;SDS011;28351;51.480;5.706;2023-02-24T15:29:27;7.30;;;3.55;;
42714;SDS011;28351;51.480;5.706;2023-02-24T15:31:56;10.98;;;3.95;;
42714;SDS011;28351;51.480;5.706;2023-02-24T15:37:00;11.43;;;3.50;;
42714;SDS011;28351;51.480;5.706;2023-02-24T15:39:40;11.07;;;3.83;;
42714;SDS011;28351;51.480;5.706;2023-02-24T15:48:21;5.85;;;2.03;;
42714;SDS011;28351;51.480;5.706;2023-02-24T15:50:50;8.05;;;2.17;;
42714;SDS011;28351;51.480;5.706;2023-02-24T15:53:18;7.72;;;1.95;;
42714;SDS011;28351;51.480;5.706;2023-02-24T15:55:43;8.00;;;1.58;;
42714;SDS011;28351;51.480;5.706;2023-02-24T16:01:47;9.43;;;1.58;;
42714;SDS011;28351;51.480;5.706;2023-02-24T16:04:12;7.90;;;1.70;;
42714;SDS011;28351;51.480;5.706;2023-02-24T16:06:38;5.95;;;1.13;;
42714;SDS011;28351;51.480;5.706;2023-02-24T16:09:14;7.97;;;1.73;;
42714;SDS011;28351;51.480;5.706;2023-02-24T16:11:42;7.82;;;1.63;;
42714;SDS011;28351;51.480;5.706;2023-02-24T16:14:14;8.25;;;1.80;;
42714;SDS011;28351;51.480;5.706;2023-02-24T16:16:42;7.78;;;1.80;;
42714;SDS011;28351;51.480;5.706;2023-02-24T16:19:09;6.22;;;1.48;;
42714;SDS011;28351;51.480;5.706;2023-02-24T16:21:40;10.68;;;1.90;;
42714;SDS011;28351;51.480;5.706;2023-02-24T16:24:06;5.45;;;1.13;;
42714;SDS011;28351;51.480;5.706;2023-02-24T16:26:34;11.13;;;1.85;;
42714;SDS011;28351;51.480;5.706;2023-02-24T16:29:01;7.68;;;1.65;;
42714;SDS011;28351;51.480;5.706;2023-02-24T16:31:27;8.98;;;1.52;;
42714;SDS011;28351;51.480;5.706;2023-02-24T16:33:53;9.13;;;1.20;;
42714;SDS011;28351;51.480;5.706;2023-02-24T16:36:18;8.30;;;1.55;;
42714;SDS011;28351;51.480;5.706;2023-02-24T16:38:45;11.77;;;2.17;;
42714;SDS011;28351;51.480;5.706;2023-02-24T16:41:14;13.65;;;2.17;;
42714;SDS011;28351;51.480;5.706;2023-02-24T16:43:40;8.55;;;1.90;;
42714;SDS011;28351;51.480;5.706;2023-02-24T16:46:06;8.73;;;1.83;;
42714;SDS011;28351;51.480;5.706;2023-02-24T16:48:44;11.32;;;1.40;;
42714;SDS011;28351;51.480;5.706;2023-02-24T16:51:11;9.93;;;1.60;;
42714;SDS011;28351;51.480;5.706;2023-02-24T16:53:37;15.43;;;1.67;;
42714;SDS011;28351;51.480;5.706;2023-02-24T16:56:03;11.02;;;1.80;;
42714;SDS011;28351;51.480;5.706;2023-02-24T16:58:30;6.75;;;1.38;;
42714;SDS011;28351;51.480;5.706;2023-02-24T17:00:57;7.18;;;1.27;;
42714;SDS011;28351;51.480;5.706;2023-02-24T17:03:27;10.80;;;1.60;;
42714;SDS011;28351;51.480;5.706;2023-02-24T17:06:00;8.52;;;1.45;;
42714;SDS011;28351;51.480;5.706;2023-02-24T17:08:31;7.60;;;2.65;;
42714;SDS011;28351;51.480;5.706;2023-02-24T17:10:56;9.55;;;1.98;;
42714;SDS011;28351;51.480;5.706;2023-02-24T17:13:22;6.65;;;1.67;;
42714;SDS011;28351;51.480;5.706;2023-02-24T17:15:51;8.45;;;1.30;;
42714;SDS011;28351;51.480;5.706;2023-02-24T17:18:24;7.95;;;1.38;;
42714;SDS011;28351;51.480;5.706;2023-02-24T17:20:50;5.78;;;1.48;;
42714;SDS011;28351;51.480;5.706;2023-02-24T17:23:16;14.57;;;1.75;;
42714;SDS011;28351;51.480;5.706;2023-02-24T17:25:42;9.13;;;1.98;;
42714;SDS011;28351;51.480;5.706;2023-02-24T17:28:09;8.07;;;1.80;;
42714;SDS011;28351;51.480;5.706;2023-02-24T17:30:35;2.03;;;0.82;;
42714;SDS011;28351;51.480;5.706;2023-02-24T17:33:02;7.70;;;1.50;;
42714;SDS011;28351;51.480;5.706;2023-02-24T17:35:28;5.82;;;1.35;;
42714;SDS011;28351;51.480;5.706;2023-02-24T17:37:54;4.90;;;1.38;;
42714;SDS011;28351;51.480;5.706;2023-02-24T17:40:20;4.20;;;1.52;;
42714;SDS011;28351;51.480;5.706;2023-02-24T17:42:46;10.23;;;2.00;;
42714;SDS011;28351;51.480;5.706;2023-02-24T17:45:12;7.80;;;1.42;;
42714;SDS011;28351;51.480;5.706;2023-02-24T17:47:38;7.50;;;1.98;;
42714;SDS011;28351;51.480;5.706;2023-02-24T17:50:07;2.90;;;1.00;;
42714;SDS011;28351;51.480;5.706;2023-02-24T17:52:35;1.08;;;0.73;;
42714;SDS011;28351;51.480;5.706;2023-02-24T17:55:01;2.28;;;0.95;;
42714;SDS011;28351;51.480;5.706;2023-02-24T17:57:27;5.88;;;1.35;;
42714;SDS011;28351;51.480;5.706;2023-02-24T17:59:54;5.13;;;0.90;;
42714;SDS011;28351;51.480;5.706;2023-02-24T18:02:19;2.55;;;1.00;;
42714;SDS011;28351;51.480;5.706;2023-02-24T18:04:45;2.72;;;0.80;;
42714;SDS011;28351;51.480;5.706;2023-02-24T18:07:13;5.18;;;1.00;;
42714;SDS011;28351;51.480;5.706;2023-02-24T18:09:39;4.63;;;0.98;;
42714;SDS011;28351;51.480;5.706;2023-02-24T18:12:04;7.80;;;1.88;;
42714;SDS011;28351;51.480;5.706;2023-02-24T18:14:30;5.25;;;1.60;;
42714;SDS011;28351;51.480;5.706;2023-02-24T18:16:56;3.30;;;1.42;;
42714;SDS011;28351;51.480;5.706;2023-02-24T18:19:22;7.20;;;1.02;;
42714;SDS011;28351;51.480;5.706;2023-02-24T18:21:48;8.00;;;1.65;;
42714;SDS011;28351;51.480;5.706;2023-02-24T18:24:14;5.70;;;1.13;;
42714;SDS011;28351;51.480;5.706;2023-02-24T18:26:39;7.43;;;1.63;;
42714;SDS011;28351;51.480;5.706;2023-02-24T18:29:05;6.03;;;1.60;;
42714;SDS011;28351;51.480;5.706;2023-02-24T18:31:31;8.75;;;1.50;;
42714;SDS011;28351;51.480;5.706;2023-02-24T18:33:58;4.88;;;1.50;;
42714;SDS011;28351;51.480;5.706;2023-02-24T18:36:24;7.22;;;2.03;;